KRCA/RCA METAR and TAF weather

Enter ICAO airport designator
Station Type Date Time Source
KRCA METAR 2019/06/18 12:56 UTC NOAA

KRCA 181256Z AUTO 18003KT 10SM CLR 13/13 A3005 RMK AO2 SLP168 T01250125 $


Station Type Date Time Source
KRCA Decoded METAR 2019/06/18 12:56 UTC NOAA

Ellsworth Air Force Base, SD, United States (KRCA) 44-09N 103-06W
Jun 18, 2019 - 08:56 AM EDT / 2019.06.18 1256 UTC
Wind: from the S (180 degrees) at 3 MPH (3 KT):0
Visibility: 10 mile(s):0
Sky conditions: clear
Temperature: 54.5 F (12.5 C)
Dew Point: 54.5 F (12.5 C)
Relative Humidity: 100%
Pressure (altimeter): 30.05 in. Hg (1017 hPa)
ob: KRCA 181256Z AUTO 18003KT 10SM CLR 13/13 A3005 RMK AO2 SLP168 T01250125
cycle: 13

Station Type Date Time Source
KRCA TAF 2019/06/18 11:06 UTC NOAA

TAF KRCA 181100Z 1811/1917 18006KT 9999 FEW035 QNH2982INS
BECMG 1823/1824 17006KT 9000 -SHRA BKN040 630409 QNH2990INS
BECMG 1915/1916 20012KT 9999 NSW SCT060 QNH2998INS TX22/1820Z TN12/1811Z

Example: see airport list